Time;durP1;ratioP1;P1;durP2;ratioP2;P2;SDS_P1;SDS_P2;PMS_P1;PMS_P2;Temp;Humidity;BMP_temperature;BMP_pressure;BME280_temperature;BME280_humidity;BME280_pressure;Samples;Min_cycle;Max_cycle;Signal;HPM_P1;HPM_P2
2022/06/28 00:02:28;;;;;;;5.07;3.90;;;15.50;99.90;;;;;;5092523;28;20044;-91
2022/06/28 00:05:18;;;;;;;4.05;3.50;;;15.40;99.90;;;;;;5086965;28;20357;-89
2022/06/28 00:08:06;;;;;;;6.70;3.67;;;15.40;99.90;;;;;;5074489;28;20060;-91
2022/06/28 00:10:53;;;;;;;4.38;3.13;;;15.50;99.90;;;;;;5089608;28;20138;-84
2022/06/28 00:13:40;;;;;;;4.60;2.72;;;15.50;99.90;;;;;;5088913;28;20090;-88
2022/06/28 00:16:34;;;;;;;5.05;2.20;;;15.50;99.90;;;;;;5079731;28;20056;-88
2022/06/28 00:19:22;;;;;;;3.28;2.40;;;15.50;99.90;;;;;;5083460;28;20067;-87
2022/06/28 00:22:09;;;;;;;1.80;1.70;;;15.60;99.90;;;;;;5083939;28;20044;-89
2022/06/28 00:25:01;;;;;;;5.57;2.15;;;15.60;99.90;;;;;;5070646;28;20093;-87
2022/06/28 00:27:48;;;;;;;4.35;2.28;;;15.60;99.90;;;;;;5073346;28;20080;-87
2022/06/28 00:30:35;;;;;;;5.63;1.70;;;15.60;99.90;;;;;;5067747;28;20048;-88
2022/06/28 00:33:22;;;;;;;4.07;2.22;;;15.60;99.90;;;;;;5074471;28;20045;-87
2022/06/28 00:36:10;;;;;;;12.40;2.78;;;15.60;99.90;;;;;;5086674;28;20102;-89
2022/06/28 00:38:59;;;;;;;5.10;2.70;;;15.50;99.90;;;;;;5074466;28;20047;-89
2022/06/28 00:41:46;;;;;;;3.65;1.98;;;15.40;99.90;;;;;;5071407;28;20071;-89
2022/06/28 00:44:39;;;;;;;7.75;2.10;;;15.40;99.90;;;;;;5070178;28;20127;-88
2022/06/28 00:47:27;;;;;;;5.75;2.33;;;15.30;99.90;;;;;;5075122;28;20335;-89
2022/06/28 00:50:18;;;;;;;3.78;2.33;;;15.20;99.90;;;;;;5062395;28;20044;-86
2022/06/28 00:53:09;;;;;;;2.92;2.38;;;15.00;99.90;;;;;;5058983;28;20178;-88
2022/06/28 00:55:56;;;;;;;3.22;2.40;;;15.00;99.90;;;;;;5072952;28;20041;-87
2022/06/28 00:58:45;;;;;;;4.90;2.47;;;14.80;99.90;;;;;;5075922;28;20057;-88
2022/06/28 01:01:32;;;;;;;3.28;2.50;;;14.80;99.90;;;;;;5072391;28;20052;-88
2022/06/28 01:04:20;;;;;;;3.53;2.40;;;14.70;99.90;;;;;;5079419;28;20040;-88
2022/06/28 01:07:09;;;;;;;7.75;3.03;;;14.70;99.90;;;;;;5075100;28;20166;-88
2022/06/28 01:09:59;;;;;;;4.03;2.72;;;14.70;99.90;;;;;;5074035;28;20130;-88
2022/06/28 01:12:50;;;;;;;10.15;2.50;;;14.70;99.90;;;;;;5070653;28;20040;-88
2022/06/28 01:15:41;;;;;;;4.00;2.15;;;14.70;99.90;;;;;;5067743;28;20048;-87
2022/06/28 01:18:31;;;;;;;3.20;2.38;;;14.70;99.90;;;;;;5072296;28;20044;-87
2022/06/28 01:21:18;;;;;;;3.90;2.00;;;14.70;99.90;;;;;;5065151;28;20056;-87
2022/06/28 01:24:06;;;;;;;2.85;1.92;;;14.70;99.90;;;;;;5069094;28;20044;-89
2022/06/28 01:26:54;;;;;;;2.25;1.67;;;14.70;99.90;;;;;;5066483;28;20052;-88
2022/06/28 01:29:41;;;;;;;4.88;2.10;;;14.70;99.90;;;;;;5065496;28;20036;-89
2022/06/28 01:32:33;;;;;;;3.90;2.05;;;14.60;99.90;;;;;;5069490;28;20055;-89
2022/06/28 01:35:20;;;;;;;3.65;2.00;;;14.60;99.90;;;;;;5070000;28;20116;-86
2022/06/28 01:38:18;;;;;;;4.28;1.70;;;14.60;99.90;;;;;;5070618;28;20201;-87
2022/06/28 01:41:08;;;;;;;2.72;2.20;;;14.70;99.90;;;;;;5070434;28;20045;-87
2022/06/28 01:44:01;;;;;;;1.90;1.80;;;14.80;99.90;;;;;;5070188;28;20053;-89
2022/06/28 01:46:48;;;;;;;5.40;1.70;;;14.80;99.90;;;;;;5072231;28;20087;-88
2022/06/28 01:49:35;;;;;;;3.38;1.90;;;14.70;99.90;;;;;;5071336;28;20132;-88
2022/06/28 01:52:23;;;;;;;6.25;1.90;;;14.70;99.90;;;;;;5070967;28;20053;-89
2022/06/28 01:55:10;;;;;;;4.07;1.98;;;14.60;99.90;;;;;;5071155;28;20033;-91
2022/06/28 01:58:00;;;;;;;3.35;2.05;;;14.40;99.90;;;;;;5052096;28;20052;-89
2022/06/28 02:00:47;;;;;;;1.95;1.85;;;14.30;99.90;;;;;;5073587;28;20090;-88
2022/06/28 02:03:34;;;;;;;2.28;2.08;;;14.20;99.90;;;;;;5069819;28;20487;-89
2022/06/28 02:06:21;;;;;;;5.30;2.83;;;14.10;99.90;;;;;;5070385;28;20049;-90
2022/06/28 02:09:11;;;;;;;10.63;3.70;;;14.00;99.90;;;;;;5076320;28;20477;-90
2022/06/28 02:11:58;;;;;;;7.10;3.75;;;14.00;99.90;;;;;;5080031;28;20052;-89
2022/06/28 02:14:47;;;;;;;9.73;3.67;;;13.90;99.90;;;;;;5074136;28;20078;-91
2022/06/28 02:17:35;;;;;;;9.38;4.32;;;13.80;99.90;;;;;;5087273;28;20075;-90
2022/06/28 02:20:22;;;;;;;10.32;4.32;;;13.80;99.90;;;;;;5093296;28;20082;-89
2022/06/28 02:23:14;;;;;;;5.82;4.70;;;13.80;99.90;;;;;;5085118;28;20036;-89
2022/06/28 02:26:01;;;;;;;5.87;4.43;;;13.80;99.90;;;;;;5088212;28;20090;-90
2022/06/28 02:28:51;;;;;;;10.98;4.72;;;13.80;99.90;;;;;;5084722;28;20113;-86
2022/06/28 02:31:38;;;;;;;12.40;5.10;;;13.70;99.90;;;;;;5079850;28;20068;-90
2022/06/28 02:40:41;;;;;;;7.70;5.35;;;13.60;99.90;;;;;;5076438;28;20037;-90
2022/06/28 02:43:28;;;;;;;8.73;6.10;;;13.60;99.90;;;;;;5073778;28;20094;-88
2022/06/28 02:46:18;;;;;;;8.45;5.28;;;13.60;99.90;;;;;;5069573;28;20120;-90
2022/06/28 02:49:05;;;;;;;8.80;4.97;;;13.50;99.90;;;;;;5071412;28;20101;-91
2022/06/28 02:51:54;;;;;;;8.35;4.72;;;13.50;99.90;;;;;;5075470;28;20045;-87
2022/06/28 02:54:42;;;;;;;8.38;4.72;;;13.50;99.90;;;;;;5067095;28;20066;-89
2022/06/28 02:57:34;;;;;;;9.20;5.10;;;13.40;99.90;;;;;;5075784;28;20080;-89
2022/06/28 03:00:21;;;;;;;;;;;13.40;99.90;;;;;;5070481;28;20109;-89
2022/06/28 03:03:09;;;;;;;8.95;5.60;;;13.40;99.90;;;;;;5077199;28;20276;-88
2022/06/28 03:05:56;;;;;;;7.20;5.35;;;13.50;99.90;;;;;;5072562;28;20334;-89
2022/06/28 03:08:45;;;;;;;7.95;6.10;;;13.50;99.90;;;;;;5083202;28;20522;-89
2022/06/28 03:11:32;;;;;;;17.85;6.57;;;13.60;99.90;;;;;;5085051;28;20078;-90
2022/06/28 03:14:19;;;;;;;7.28;6.45;;;13.70;99.90;;;;;;5065869;28;20064;-90
2022/06/28 03:17:09;;;;;;;9.45;8.45;;;13.70;99.90;;;;;;5076665;28;20438;-90
2022/06/28 03:19:56;;;;;;;19.05;8.75;;;13.80;99.90;;;;;;5078032;28;20477;-87
2022/06/28 03:22:44;;;;;;;10.88;6.72;;;13.90;99.90;;;;;;5084176;28;20056;-88
2022/06/28 03:25:31;;;;;;;15.60;8.15;;;13.90;99.90;;;;;;5077705;28;20056;-89
2022/06/28 03:28:22;;;;;;;12.20;8.15;;;13.90;99.90;;;;;;5076544;28;20124;-89
2022/06/28 03:31:12;;;;;;;12.45;7.93;;;13.90;99.90;;;;;;5069332;28;20422;-88
2022/06/28 03:33:59;;;;;;;12.30;8.00;;;13.90;99.90;;;;;;5079488;28;20097;-88
2022/06/28 03:36:50;;;;;;;12.45;7.65;;;13.90;99.90;;;;;;5061814;28;20140;-89
2022/06/28 03:39:38;;;;;;;11.27;7.10;;;13.90;99.90;;;;;;5069635;28;20110;-89
2022/06/28 03:42:28;;;;;;;10.07;7.13;;;13.90;99.90;;;;;;5076036;28;20056;-88
2022/06/28 03:45:15;;;;;;;13.18;7.50;;;13.90;99.90;;;;;;5078249;28;20040;-86
2022/06/28 03:48:02;;;;;;;12.55;7.47;;;14.00;99.90;;;;;;5055275;28;20068;-87
2022/06/28 03:50:52;;;;;;;11.48;8.25;;;14.00;99.90;;;;;;5075565;28;20048;-87
2022/06/28 03:53:39;;;;;;;8.60;7.47;;;14.00;99.90;;;;;;5075932;28;20048;-88
2022/06/28 03:56:26;;;;;;;9.50;8.00;;;14.10;99.90;;;;;;5071616;28;20056;-87
2022/06/28 03:59:16;;;;;;;12.10;8.60;;;14.10;99.90;;;;;;5071698;28;20076;-88
2022/06/28 04:02:04;;;;;;;13.93;9.65;;;14.10;99.90;;;;;;5072004;28;20052;-89
2022/06/28 04:04:54;;;;;;;22.25;14.73;;;14.10;99.90;;;;;;5090534;28;20128;-89
2022/06/28 04:07:41;;;;;;;13.30;9.65;;;14.10;99.90;;;;;;5062665;28;20450;-88
2022/06/28 04:10:31;;;;;;;20.08;13.73;;;14.10;99.90;;;;;;5072007;28;20063;-88
2022/06/28 04:13:18;;;;;;;11.43;8.32;;;14.10;99.90;;;;;;5077604;28;20040;-89
2022/06/28 04:16:06;;;;;;;9.32;7.88;;;14.10;99.90;;;;;;5079081;28;20142;-90
2022/06/28 04:19:15;;;;;;;11.30;8.40;;;14.10;99.90;;;;;;5075065;28;20036;-89
2022/06/28 04:22:02;;;;;;;16.20;8.43;;;14.20;99.90;;;;;;5073598;28;20143;-88
2022/06/28 04:24:50;;;;;;;16.92;8.50;;;14.30;99.90;;;;;;5067150;28;20045;-87
2022/06/28 04:27:39;;;;;;;14.15;8.13;;;14.30;99.90;;;;;;5077319;28;20119;-87
2022/06/28 04:34:45;;;;;;;10.30;8.48;;;14.40;99.90;;;;;;5078015;28;20024;-84
2022/06/28 04:52:33;;;;;;;7.07;6.38;;;14.70;99.90;;;;;;5096752;28;20445;-89
2022/06/28 04:55:21;;;;;;;8.15;6.72;;;14.80;99.90;;;;;;5090024;28;20063;-89
2022/06/28 04:58:08;;;;;;;8.68;6.47;;;14.90;99.90;;;;;;5092740;28;20486;-91
2022/06/28 05:00:55;;;;;;;9.07;6.88;;;14.90;99.90;;;;;;5096795;28;20125;-91
2022/06/28 05:04:01;;;;;;;6.95;6.13;;;15.00;99.90;;;;;;5095381;28;20055;-91
2022/06/28 05:06:48;;;;;;;6.40;5.72;;;15.00;99.90;;;;;;5095318;28;20441;-91
2022/06/28 05:09:35;;;;;;;12.35;6.25;;;15.10;99.90;;;;;;5081294;28;20049;-86
2022/06/28 05:12:27;;;;;;;7.35;5.28;;;15.00;99.90;;;;;;5087988;28;20046;-90
2022/06/28 05:15:14;;;;;;;6.40;5.78;;;15.00;99.90;;;;;;5080806;28;20059;-92
2022/06/28 05:18:01;;;;;;;6.72;5.82;;;14.90;99.90;;;;;;5085427;28;20113;-91
2022/06/28 05:20:48;;;;;;;7.45;6.40;;;14.90;99.90;;;;;;5088187;28;20044;-90
2022/06/28 05:23:37;;;;;;;12.77;6.32;;;14.90;99.90;;;;;;5086512;28;20052;-89
2022/06/28 05:26:36;;;;;;;13.35;8.48;;;14.90;99.90;;;;;;5082970;28;20101;-86
2022/06/28 05:29:32;;;;;;;7.07;6.30;;;15.00;99.90;;;;;;5045753;28;20457;-87
2022/06/28 05:36:22;;;;;;;9.50;6.10;;;15.40;99.90;;;;;;5051459;28;20200;-87
2022/06/28 06:28:37;;;;;;;12.38;11.07;;;17.40;99.90;;;;;;5098259;28;20020;-90
2022/06/28 06:53:19;;;;;;;14.60;12.25;;;16.70;99.90;;;;;;5531322;22;20048;-89
2022/06/28 07:00:30;;;;;;;17.90;15.05;;;16.40;99.90;;;;;;5017340;28;19909;-87
2022/06/28 07:08:20;;;;;;;16.20;14.23;;;16.00;99.90;;;;;;5091389;28;20032;-90
2022/06/28 07:11:42;;;;;;;172.77;23.48;;;15.90;99.90;;;;;;5089383;28;20413;-89
2022/06/28 07:35:51;;;;;;;;;;;;;;;;;;;;;
2022/06/28 08:56:57;;;;;;;6.57;3.35;;;21.80;99.90;;;;;;4938358;29;20465;-89
2022/06/28 09:29:20;;;;;;;7.18;3.00;;;23.40;99.90;;;;;;4892638;29;20419;-87
2022/06/28 09:45:52;;;;;;;3.40;3.10;;;21.50;99.90;;;;;;5059756;28;20376;-92
2022/06/28 09:53:20;;;;;;;4.00;3.05;;;23.90;99.90;;;;;;5060625;28;20103;-91
2022/06/28 09:56:38;;;;;;;4.97;2.78;;;25.30;99.90;;;;;;5049460;28;20149;-92
2022/06/28 09:59:29;;;;;;;2.38;2.17;;;26.50;97.40;;;;;;5049341;28;20458;-93
2022/06/28 10:02:32;;;;;;;2.83;2.35;;;26.20;97.00;;;;;;5054939;28;20469;-93
2022/06/28 10:09:59;;;;;;;5.13;2.00;;;27.40;93.60;;;;;;5010937;28;20048;-92
2022/06/28 10:16:54;;;;;;;2.30;2.08;;;25.40;96.40;;;;;;5055758;28;20336;-93
2022/06/28 10:20:14;;;;;;;4.32;2.00;;;27.00;95.30;;;;;;5019506;28;20046;-93
2022/06/28 10:23:24;;;;;;;4.18;2.00;;;26.90;91.60;;;;;;4935200;28;20457;-91
2022/06/28 10:26:19;;;;;;;6.55;2.75;;;26.60;92.70;;;;;;5058134;28;20048;-91
2022/06/28 10:29:24;;;;;;;5.93;2.20;;;26.80;91.10;;;;;;5056585;28;20045;-93
2022/06/28 10:36:24;;;;;;;3.13;2.35;;;25.90;92.00;;;;;;5056941;28;20057;-89
2022/06/28 10:39:25;;;;;;;4.45;2.70;;;24.80;95.10;;;;;;5058580;28;20045;-90
2022/06/28 10:43:06;;;;;;;2.10;1.92;;;25.10;94.00;;;;;;5052977;28;20386;-89
2022/06/28 10:46:14;;;;;;;3.63;1.95;;;25.90;94.20;;;;;;4935773;29;20107;-91
2022/06/28 10:49:10;;;;;;;2.45;2.25;;;25.70;91.20;;;;;;4977753;28;20050;-89
2022/06/28 10:52:36;;;;;;;2.63;1.70;;;24.80;94.30;;;;;;5053354;28;20095;-90
2022/06/28 10:56:12;;;;;;;2.25;2.05;;;24.60;93.70;;;;;;5055849;28;20052;-87
2022/06/28 10:59:45;;;;;;;2.22;1.90;;;24.20;95.00;;;;;;5056969;28;20045;-90
2022/06/28 11:07:39;;;;;;;4.63;1.92;;;25.40;93.00;;;;;;5051940;28;20032;-90
2022/06/28 11:11:29;;;;;;;3.58;1.70;;;25.70;91.80;;;;;;4916952;29;20044;-90
2022/06/28 11:31:55;;;;;;;2.63;1.63;;;24.40;93.70;;;;;;4897922;29;20052;-92
2022/06/28 12:08:17;;;;;;;1.40;1.30;;;26.40;87.30;;;;;;4911348;29;20047;-92
2022/06/28 12:19:28;;;;;;;3.78;1.50;;;23.70;94.00;;;;;;4937195;28;20038;-90
2022/06/28 12:39:16;;;;;;;2.80;1.50;;;24.30;93.50;;;;;;5045304;28;20036;-90
2022/06/28 12:46:33;;;;;;;1.77;1.50;;;23.40;95.60;;;;;;5065012;28;20505;-89
2022/06/28 12:49:46;;;;;;;1.85;1.48;;;23.10;96.30;;;;;;5057341;28;20041;-86
2022/06/28 12:56:54;;;;;;;2.15;1.88;;;23.40;95.60;;;;;;5030962;28;20029;-89
2022/06/28 12:59:47;;;;;;;2.25;1.42;;;23.50;95.70;;;;;;5030605;28;20049;-90
2022/06/28 13:15:56;;;;;;;5.35;1.40;;;24.40;92.80;;;;;;4997712;28;20030;-91
2022/06/28 13:56:10;;;;;;;1.88;1.20;;;25.10;89.50;;;;;;5073824;28;20401;-87
2022/06/28 13:59:28;;;;;;;;;;;;;;;;;;;;;
2022/06/28 14:02:34;;;;;;;3.95;1.10;;;24.50;90.70;;;;;;5081484;28;20025;-89
2022/06/28 14:05:24;;;;;;;1.92;1.10;;;24.40;92.60;;;;;;5068662;28;20040;-88
2022/06/28 14:08:14;;;;;;;0.93;0.80;;;24.10;92.30;;;;;;5082232;28;20123;-92
2022/06/28 14:11:53;;;;;;;1.75;0.98;;;23.80;93.80;;;;;;5074263;28;20045;-89
2022/06/28 14:15:18;;;;;;;;;;;;;;;;;;;;;
2022/06/28 14:18:27;;;;;;;3.80;1.00;;;23.30;94.10;;;;;;5083501;28;20024;-88
2022/06/28 14:21:33;;;;;;;;;;;;;;;;;;;;;
2022/06/28 14:29:16;;;;;;;1.67;1.30;;;23.60;94.00;;;;;;5019956;28;20026;-89
2022/06/28 14:40:20;;;;;;;1.55;1.10;;;23.50;94.00;;;;;;5025628;28;20124;-91
2022/06/28 15:10:37;;;;;;;1.73;0.90;;;23.00;94.00;;;;;;5093695;28;20056;-89
2022/06/28 15:38:36;;;;;;;1.05;0.85;;;23.70;92.70;;;;;;5033461;28;20025;-87
2022/06/28 15:41:23;;;;;;;1.83;1.25;;;23.40;93.10;;;;;;5031279;28;20041;-88
2022/06/28 15:44:12;;;;;;;2.90;1.30;;;23.30;93.40;;;;;;5057132;28;20044;-88
2022/06/28 15:47:00;;;;;;;1.15;1.05;;;23.00;93.60;;;;;;5065825;28;20044;-86
2022/06/28 15:49:47;;;;;;;1.95;1.40;;;22.90;94.40;;;;;;5084646;28;20486;-87
2022/06/28 15:52:34;;;;;;;4.82;1.40;;;22.60;93.60;;;;;;5087967;28;20072;-88
2022/06/28 15:55:21;;;;;;;2.97;1.20;;;22.50;94.60;;;;;;5091911;28;20043;-87
2022/06/28 15:58:09;;;;;;;2.05;1.15;;;22.50;94.80;;;;;;5085415;28;20048;-86
2022/06/28 16:00:56;;;;;;;1.17;1.00;;;22.30;95.90;;;;;;5084777;28;20043;-85
2022/06/28 16:03:43;;;;;;;2.40;1.33;;;22.40;96.20;;;;;;5092645;28;20051;-88
2022/06/28 16:06:31;;;;;;;4.63;1.30;;;22.30;96.10;;;;;;5094424;28;20055;-88
2022/06/28 16:09:21;;;;;;;2.25;1.35;;;22.30;96.60;;;;;;5090279;28;20063;-87
2022/06/28 16:15:14;;;;;;;1.35;1.10;;;22.20;97.30;;;;;;5090096;28;20128;-88
2022/06/28 16:18:03;;;;;;;2.75;1.30;;;22.30;97.80;;;;;;5093502;28;20051;-87
2022/06/28 16:20:51;;;;;;;3.03;1.30;;;22.30;97.30;;;;;;5086830;28;20115;-87
2022/06/28 16:23:38;;;;;;;4.78;1.60;;;22.40;97.10;;;;;;5073674;28;20381;-88
2022/06/28 16:26:26;;;;;;;3.13;1.48;;;22.50;96.60;;;;;;5085042;28;20035;-85
2022/06/28 16:29:13;;;;;;;2.97;1.67;;;22.60;96.90;;;;;;5074138;28;20044;-88
2022/06/28 16:32:02;;;;;;;3.50;1.63;;;22.70;96.40;;;;;;5079465;28;20048;-87
2022/06/28 16:34:49;;;;;;;2.50;1.45;;;22.70;96.40;;;;;;5078945;28;20134;-90
2022/06/28 16:37:36;;;;;;;3.50;1.25;;;22.80;96.00;;;;;;5093003;28;20447;-85
2022/06/28 16:40:25;;;;;;;1.40;1.30;;;23.10;96.10;;;;;;5081306;28;20055;-88
2022/06/28 16:43:12;;;;;;;6.80;1.48;;;23.20;96.20;;;;;;5094395;28;20036;-88
2022/06/28 16:45:59;;;;;;;1.73;1.52;;;23.30;96.00;;;;;;5088561;28;20105;-88
2022/06/28 16:48:49;;;;;;;4.05;1.50;;;22.70;96.10;;;;;;5094954;28;20047;-88
2022/06/28 16:51:36;;;;;;;3.50;1.65;;;22.30;96.50;;;;;;5094140;28;20040;-89
2022/06/28 16:54:25;;;;;;;3.45;1.73;;;22.00;97.70;;;;;;5097106;28;20059;-86
2022/06/28 16:57:14;;;;;;;2.25;1.52;;;21.90;98.40;;;;;;5079695;28;20040;-89
2022/06/28 17:00:05;;;;;;;3.28;1.75;;;21.80;98.70;;;;;;5098213;28;20173;-88
2022/06/28 17:02:52;;;;;;;3.45;1.52;;;21.80;98.90;;;;;;5092762;28;20379;-91
2022/06/28 17:05:39;;;;;;;2.67;1.50;;;21.80;98.80;;;;;;5097439;28;20055;-89
2022/06/28 17:08:28;;;;;;;2.50;1.27;;;21.70;98.50;;;;;;5088647;28;20047;-88
2022/06/28 17:11:16;;;;;;;2.65;1.65;;;21.70;98.60;;;;;;5092233;28;20169;-87
2022/06/28 17:14:05;;;;;;;5.70;1.67;;;21.60;98.90;;;;;;5090656;28;20036;-85
2022/06/28 17:16:56;;;;;;;3.03;1.70;;;21.60;99.60;;;;;;5096163;28;20055;-86
2022/06/28 17:19:43;;;;;;;4.35;1.75;;;21.60;99.50;;;;;;5095202;28;20092;-86
2022/06/28 17:22:31;;;;;;;4.22;1.90;;;21.70;99.30;;;;;;5085697;28;20051;-85
2022/06/28 17:25:18;;;;;;;2.45;1.45;;;21.70;99.60;;;;;;5095860;28;20069;-85
2022/06/28 17:28:05;;;;;;;4.45;1.92;;;21.60;99.60;;;;;;5095767;28;20430;-87
2022/06/28 17:30:54;;;;;;;3.10;1.80;;;21.60;99.60;;;;;;5070291;28;20051;-86
2022/06/28 17:33:42;;;;;;;4.10;1.58;;;21.60;99.90;;;;;;5096657;28;20044;-86
2022/06/28 17:36:29;;;;;;;3.53;1.65;;;21.50;99.90;;;;;;5096494;28;20157;-89
2022/06/28 17:39:20;;;;;;;1.70;1.60;;;21.50;99.90;;;;;;5097671;28;20036;-86
2022/06/28 17:42:08;;;;;;;2.33;2.13;;;21.40;99.90;;;;;;5090265;28;20102;-86
2022/06/28 17:44:55;;;;;;;3.65;1.92;;;21.30;99.90;;;;;;5083685;28;20377;-89
2022/06/28 17:47:43;;;;;;;4.30;2.22;;;21.30;99.90;;;;;;5085897;28;20179;-88
2022/06/28 17:50:31;;;;;;;4.10;2.20;;;21.20;99.90;;;;;;5100296;28;20059;-86
2022/06/28 17:53:22;;;;;;;2.85;2.30;;;21.20;99.90;;;;;;5091849;28;20048;-86
2022/06/28 17:56:09;;;;;;;2.25;2.15;;;21.10;99.90;;;;;;5098534;28;20044;-88
2022/06/28 17:58:57;;;;;;;3.20;2.00;;;21.10;99.90;;;;;;5102877;28;20468;-89
2022/06/28 18:01:45;;;;;;;4.70;2.40;;;21.00;99.90;;;;;;5097337;28;20047;-88
2022/06/28 18:04:35;;;;;;;2.40;2.00;;;20.90;99.90;;;;;;5095035;28;20055;-87
2022/06/28 18:07:23;;;;;;;4.28;2.45;;;20.90;99.90;;;;;;5096227;28;20065;-88
2022/06/28 18:10:13;;;;;;;3.20;2.20;;;20.90;99.90;;;;;;5103595;28;20154;-88
2022/06/28 18:13:05;;;;;;;2.53;2.20;;;20.80;99.90;;;;;;5098077;28;20055;-87
2022/06/28 18:15:53;;;;;;;4.97;2.40;;;20.80;99.90;;;;;;5105199;28;20047;-87
2022/06/28 18:18:43;;;;;;;3.55;2.75;;;20.80;99.90;;;;;;5120477;28;20036;-85
2022/06/28 18:21:31;;;;;;;4.30;2.38;;;20.80;99.90;;;;;;5114425;28;20044;-87
2022/06/28 18:24:18;;;;;;;2.83;2.05;;;20.70;99.90;;;;;;5110602;28;20074;-87
2022/06/28 18:27:06;;;;;;;3.03;2.72;;;20.60;99.90;;;;;;5110443;28;20052;-88
2022/06/28 18:29:53;;;;;;;2.72;2.47;;;20.60;99.90;;;;;;5105735;28;20063;-86
2022/06/28 18:32:40;;;;;;;7.10;2.58;;;20.50;99.90;;;;;;5086296;28;20168;-86
2022/06/28 18:35:29;;;;;;;3.50;2.65;;;20.50;99.90;;;;;;5096875;28;20048;-85
2022/06/28 18:38:17;;;;;;;4.18;2.58;;;20.40;99.90;;;;;;5083926;28;20044;-88
2022/06/28 18:41:06;;;;;;;2.47;2.28;;;20.30;99.90;;;;;;5105224;28;20048;-88
2022/06/28 18:43:54;;;;;;;4.07;2.90;;;20.20;99.90;;;;;;5085142;28;20173;-87
2022/06/28 18:46:41;;;;;;;3.08;2.75;;;20.20;99.90;;;;;;5094957;28;20099;-88
2022/06/28 18:49:28;;;;;;;3.13;2.58;;;20.00;99.90;;;;;;5086439;28;20574;-89
2022/06/28 18:52:16;;;;;;;4.18;2.70;;;19.90;99.90;;;;;;5088898;28;20055;-87
2022/06/28 18:55:06;;;;;;;3.00;2.80;;;19.80;99.90;;;;;;5099254;28;20044;-87
2022/06/28 18:57:53;;;;;;;3.13;2.80;;;19.80;99.90;;;;;;5095709;28;20107;-88
2022/06/28 19:00:41;;;;;;;3.75;2.92;;;19.70;99.90;;;;;;5088977;28;20051;-85
2022/06/28 19:03:29;;;;;;;5.32;3.08;;;19.60;99.90;;;;;;5083797;28;20045;-87
2022/06/28 19:06:16;;;;;;;4.30;3.20;;;19.50;99.90;;;;;;5078554;28;20056;-86
2022/06/28 19:09:06;;;;;;;5.38;3.10;;;19.50;99.90;;;;;;5085959;28;20048;-88
2022/06/28 19:11:53;;;;;;;5.60;3.28;;;19.30;99.90;;;;;;5094010;28;20140;-88
2022/06/28 19:14:41;;;;;;;3.67;3.38;;;19.20;99.90;;;;;;5086412;28;20126;-87
2022/06/28 19:17:28;;;;;;;4.47;3.47;;;19.10;99.90;;;;;;5094842;28;20060;-87
2022/06/28 19:20:15;;;;;;;4.85;3.28;;;19.10;99.90;;;;;;5093826;28;20042;-87
2022/06/28 19:23:11;;;;;;;3.80;3.38;;;19.00;99.90;;;;;;5092694;28;20254;-89
2022/06/28 19:25:58;;;;;;;4.40;3.58;;;18.90;99.90;;;;;;5095199;28;20395;-88
2022/06/28 19:28:48;;;;;;;4.07;3.67;;;18.80;99.90;;;;;;5091211;28;20456;-87
2022/06/28 19:31:36;;;;;;;4.68;3.63;;;18.70;99.90;;;;;;5096299;28;20158;-87
2022/06/28 19:34:23;;;;;;;7.97;4.10;;;18.60;99.90;;;;;;5091402;28;20123;-88
2022/06/28 19:37:10;;;;;;;4.32;3.92;;;18.50;99.90;;;;;;5091786;28;20101;-88
2022/06/28 19:39:58;;;;;;;4.80;3.95;;;18.50;99.90;;;;;;5093632;28;20384;-89
2022/06/28 19:42:48;;;;;;;4.45;4.10;;;18.40;99.90;;;;;;5081910;28;20052;-88
2022/06/28 19:45:36;;;;;;;4.10;3.65;;;18.20;99.90;;;;;;5094156;28;20175;-88
2022/06/28 19:48:23;;;;;;;4.38;3.97;;;18.00;99.90;;;;;;5093297;28;20040;-87
2022/06/28 19:51:12;;;;;;;4.60;4.20;;;17.80;99.90;;;;;;5096333;28;20421;-87
2022/06/28 19:54:01;;;;;;;5.90;3.95;;;17.70;99.90;;;;;;5092867;28;20044;-91
2022/06/28 19:56:49;;;;;;;4.88;4.32;;;17.60;99.90;;;;;;5074613;28;20044;-91
2022/06/28 19:59:37;;;;;;;5.45;4.50;;;17.40;99.90;;;;;;5086878;28;20054;-91
2022/06/28 20:02:25;;;;;;;4.85;4.35;;;17.40;99.90;;;;;;5088198;28;20085;-91
2022/06/28 20:05:14;;;;;;;5.20;4.70;;;17.30;99.90;;;;;;5096152;28;20048;-90
2022/06/28 20:08:08;;;;;;;5.63;4.60;;;17.30;99.90;;;;;;5092180;28;20036;-88
2022/06/28 20:10:55;;;;;;;7.78;4.88;;;17.20;99.90;;;;;;5079348;28;20122;-91
2022/06/28 20:13:42;;;;;;;6.57;4.95;;;17.20;99.90;;;;;;5088423;28;20457;-90
2022/06/28 20:16:29;;;;;;;7.47;4.82;;;17.30;99.90;;;;;;5095598;28;20535;-91
2022/06/28 20:19:20;;;;;;;6.75;4.45;;;17.40;99.90;;;;;;5082719;28;20121;-92
2022/06/28 20:22:08;;;;;;;5.38;4.57;;;17.50;99.90;;;;;;5079155;28;20048;-91
2022/06/28 20:24:55;;;;;;;4.68;4.28;;;17.60;99.90;;;;;;5074953;28;20342;-91
2022/06/28 20:27:46;;;;;;;5.25;4.75;;;17.70;99.90;;;;;;5097685;28;20048;-90
2022/06/28 20:30:33;;;;;;;5.50;4.13;;;17.70;99.90;;;;;;5077452;28;20044;-91
2022/06/28 20:33:23;;;;;;;5.00;4.50;;;17.70;99.90;;;;;;5082925;28;20090;-91
2022/06/28 20:36:11;;;;;;;5.05;4.65;;;17.60;99.90;;;;;;5068973;28;20071;-91
2022/06/28 20:38:58;;;;;;;15.60;5.05;;;17.50;99.90;;;;;;5095670;28;20086;-91
2022/06/28 20:44:57;;;;;;;6.47;4.47;;;17.20;99.90;;;;;;5098271;28;20123;-90
2022/06/28 20:47:45;;;;;;;5.97;4.90;;;17.10;99.90;;;;;;5085476;28;20071;-92
2022/06/28 20:50:37;;;;;;;5.30;4.80;;;17.10;99.90;;;;;;5091501;28;20048;-93
2022/06/28 20:53:37;;;;;;;4.82;4.43;;;17.10;99.90;;;;;;5084315;28;20045;-92
2022/06/28 20:56:33;;;;;;;5.78;4.35;;;17.00;99.90;;;;;;5091912;28;20028;-90
2022/06/28 20:59:21;;;;;;;5.65;5.00;;;16.90;99.90;;;;;;5099766;28;20048;-91
2022/06/28 21:02:08;;;;;;;7.63;5.55;;;16.80;99.90;;;;;;5082309;28;20376;-90
2022/06/28 21:04:56;;;;;;;7.28;5.43;;;16.60;99.90;;;;;;5078139;28;20040;-91
2022/06/28 21:07:45;;;;;;;6.72;5.10;;;16.60;99.90;;;;;;5094856;28;20058;-91
2022/06/28 21:10:36;;;;;;;6.43;5.82;;;16.60;99.90;;;;;;5078972;28;20048;-91
2022/06/28 21:13:24;;;;;;;5.85;5.25;;;16.60;99.90;;;;;;5097160;28;20105;-91
2022/06/28 21:16:12;;;;;;;7.00;5.47;;;16.60;99.90;;;;;;5100653;28;20040;-92
2022/06/28 21:19:07;;;;;;;7.25;5.68;;;16.50;99.90;;;;;;5075986;28;20102;-92
2022/06/28 21:21:55;;;;;;;6.35;5.75;;;16.50;99.90;;;;;;5076258;28;20047;-91
2022/06/28 21:24:43;;;;;;;9.25;7.10;;;16.40;99.90;;;;;;5087266;28;20055;-91
2022/06/28 21:27:32;;;;;;;7.45;6.75;;;16.50;99.90;;;;;;5094137;28;20126;-91
2022/06/28 21:30:22;;;;;;;8.85;7.18;;;16.50;99.90;;;;;;5086689;28;20062;-92
2022/06/28 21:33:09;;;;;;;7.30;6.60;;;16.40;99.90;;;;;;5083560;28;20200;-90
2022/06/28 21:35:57;;;;;;;10.00;7.10;;;16.30;99.90;;;;;;5086100;28;20048;-90
2022/06/28 21:38:45;;;;;;;9.18;6.60;;;16.30;99.90;;;;;;5087763;28;20058;-91
2022/06/28 21:41:34;;;;;;;7.63;5.85;;;16.40;99.90;;;;;;5099155;28;20051;-91
2022/06/28 21:44:23;;;;;;;6.47;5.88;;;16.50;99.90;;;;;;5099514;28;20052;-88
2022/06/28 21:47:11;;;;;;;6.78;5.45;;;16.40;99.90;;;;;;5092352;28;20044;-91
2022/06/28 21:49:59;;;;;;;6.55;5.85;;;16.50;99.90;;;;;;5078586;28;20044;-91
2022/06/28 21:52:46;;;;;;;10.75;6.53;;;16.50;99.90;;;;;;5091529;28;20060;-92
2022/06/28 21:55:33;;;;;;;13.60;6.68;;;16.60;99.90;;;;;;5085726;28;20452;-90
2022/06/28 21:58:23;;;;;;;7.38;6.43;;;16.50;99.90;;;;;;5095408;28;20113;-91
2022/06/28 22:01:13;;;;;;;10.18;7.60;;;16.50;99.90;;;;;;5092089;28;20492;-92
2022/06/28 22:04:00;;;;;;;8.10;6.78;;;16.50;99.90;;;;;;5079662;28;20392;-91
2022/06/28 22:06:47;;;;;;;10.07;6.55;;;16.50;99.90;;;;;;5092712;28;20048;-91
2022/06/28 22:09:35;;;;;;;7.30;6.47;;;16.50;99.90;;;;;;5093897;28;20059;-89
2022/06/28 22:12:24;;;;;;;7.45;6.68;;;16.50;99.90;;;;;;5086496;28;20068;-90
2022/06/28 22:15:12;;;;;;;7.30;6.60;;;16.40;99.90;;;;;;5089617;28;20048;-90
2022/06/28 22:17:59;;;;;;;7.72;6.93;;;16.30;99.90;;;;;;5088909;28;20492;-92
2022/06/28 22:20:46;;;;;;;7.60;6.88;;;16.20;99.90;;;;;;5090710;28;20040;-89
2022/06/28 22:23:37;;;;;;;8.13;7.32;;;16.10;99.90;;;;;;5102750;28;20040;-92
2022/06/28 22:26:25;;;;;;;8.90;7.95;;;16.10;99.90;;;;;;5083119;28;20039;-91
2022/06/28 22:29:15;;;;;;;9.15;7.40;;;16.00;99.90;;;;;;5100331;28;20059;-90
2022/06/28 22:32:02;;;;;;;8.90;7.63;;;15.90;99.90;;;;;;5092748;28;20044;-92
2022/06/28 22:34:52;;;;;;;8.10;7.35;;;15.70;99.90;;;;;;5094388;28;20055;-91
2022/06/28 22:37:40;;;;;;;11.65;7.95;;;15.70;99.90;;;;;;5086971;28;20040;-91
2022/06/28 22:40:27;;;;;;;10.27;8.13;;;15.80;99.90;;;;;;5096985;28;20040;-90
2022/06/28 22:43:17;;;;;;;8.90;7.60;;;15.90;99.90;;;;;;5097874;28;20044;-84
2022/06/28 22:46:09;;;;;;;9.05;7.05;;;16.00;99.90;;;;;;5085086;28;20039;-84
2022/06/28 22:48:59;;;;;;;8.30;7.03;;;16.10;99.90;;;;;;5078799;28;20048;-84
2022/06/28 22:51:48;;;;;;;8.85;7.72;;;16.10;99.90;;;;;;5074032;28;20719;-84
2022/06/28 22:54:38;;;;;;;8.63;6.95;;;16.10;99.90;;;;;;5088414;28;20094;-85
2022/06/28 22:57:25;;;;;;;8.52;7.60;;;16.00;99.90;;;;;;5077918;28;20396;-85